Дата Пункты Температура Давл., мм. Влажн., % Ветер Погодные явления
Воздуха Воды Направл. Скорость
13.03.19 02:00 Одесса 7.0 5.0 760 37 Пн 2 14 ГОДИН
13.03.19 11:00 Одесса 6.0 5.0 761 38 Пн-С 3 11 ГОДИН
13.03.19 08:00 Одесса 2.0 5.0 761 58 Пн 2 08 ГОДИН
13.03.19 05:00 Одесса 1.0 6.0 761 78 Пн-З 3 05 ГОДИН
13.03.19 02:00 Одесса 3.0 6.0 760 72 Пн 3 02 ГОДИНИ
12.03.19 11:00 Одесса 4.0 6.0 760 78 Пн-З 1 23 ГОДИНИ
12.03.19 08:00 Одесса 4.0 6.0 759 76 Пд-З 1 20 ГОДИН
12.03.19 05:00 Одесса 5.0 6.0 758 82 Пд 2 17 ГОДИН
12.03.19 02:00 Одесса 4.0 6.0 758 81 Пн 0 14 ГОДИН
12.03.19 11:00 Одесса 4.0 6.0 758 84 Пн 0 11 ГОДИН
12.03.19 08:00 Одесса 3.0 6.0 757 86 Пд-С 3 08 ГОДИН
12.03.19 05:00 Одесса 6.0 6.0 757 58 С 3 05 ГОДИН
12.03.19 02:00 Одесса 6.0 6.0 756 52 Пн 2 02 ГОДИНИ
11.03.19 11:00 Одесса 7.0 6.0 756 50 Пн 2 23 ГОДИНИ
11.03.19 08:00 Одесса 9.0 6.0 754 44 Пн 3 20 ГОДИН
11.03.19 05:00 Одесса 11.0 6.0 752 37 Пн-З 2 17 ГОДИН
11.03.19 02:00 Одесса 15.0 6.0 750 43 Пн-З 5 14 ГОДИН
11.03.19 11:00 Одесса 19.0 5.0 748 33 З 3 11 ГОДИН
11.03.19 08:00 Одесса 11.0 5.0 749 56 З 4 08 ГОДИН
11.03.19 05:00 Одесса 13.0 5.0 749 52 Пд-З 3 05 ГОДИН
Количество строк
1 2 3 4 5 6 7 8 9 10
Page 5 of 472